Monteview, ID

1:43 PM MDT on July 25, 2014 (GMT -0600)
ITD Telegraph Hill ID US (MITD93) Elev 5424 ft | 43.55 °N, 112.59 °W | Change Station

Current weather conditions updated 58 minutes ago

Clear
Clear
72 °F
Feels Like 74 °F
N
1
Wind Variable Wind from SSW
Gusts 4.0 mph

Today is forecast to be Warmer than yesterday.

Today
High -- | Low -- °F
--% Chance of Precip.
Yesterday
High -- | Low -- °F
Precip. -- in
6:11 AM 9:01 PM
Waning Crescent, 1% visible
Pressure 30.01 in
Visibility 10.0 miles
Clouds Clear
Heat Index 74 °F
Dew Point 21 °F
Humidity 14%
Rainfall 0.00 in
Snow Depth Not available.
UV 11 out of 12
Pollen 6.20 out of 12
PM2.5 Good
Flu Activity Not available.
METAR KIDA 251853Z 21011KT 10SM CLR 23/M01 A3012 RMK AO2 SLP161 T02331006

More Conditions Fewer Conditions

Pressure 30.01 in
Visibility 10.0 miles
Clouds Clear
Heat Index 74 °F
Dew Point 21 °F
Humidity 14%
Rainfall 0.00 in
Snow Depth Not available.
UV 11 out of 12
Pollen 6.20 out of 12
PM2.5 Good
Flu Activity Not available.
METAR KIDA 251853Z 21011KT 10SM CLR 23/M01 A3012 RMK AO2 SLP161 T02331006

More Conditions Fewer Conditions

10-Day Weather Forecast

Almanac

Astronomy

Jul. 25, 2014 Rise Set
Actual Time 6:11 AM MDT 9:01 PM MDT
Civil Twilight 5:37 AM MDT 9:34 PM MDT
Nautical Twilight 4:54 AM MDT 10:17 PM MDT
Astronomical Twilight 4:05 AM MDT 11:06 PM MDT
Moon 5:15 AM MDT 7:58 PM MDT
Length of Visible Light 15h 57m
Length of Day
14h 50m
Tomorrow will be 2m 4s shorter.
Waning Crescent, 1% of the Moon is Illuminated
Today
Waning Crescent
Jul 26
New
Aug 3
First Quarter
Aug 10
Full
Aug 17
Last Quarter

Today's Extremes

State Highs State Lows

Community

WunderPhotos

Upload Photos

1,737,393 photos uploaded!

Nearby

Air Quality

  Air Quality AQ Index Pollutant
Yesterday Good
PM2.5
Current Good
PM2.5
Friday Good
PM2.5
Saturday Good
PM2.5
Sunday Good
PM2.5
Monday Good
PM2.5

Snow Depth

Station Depth Elevation
Hilts Creek 0 in 8000 ft
Moonshine 2 in 7440 ft
Sheep Mountain 0 in 6570 ft
Bear Canyon 0 in 7900 ft
Swede Peak 0 in 7640 ft

Earthquake Activity

City Distance Mag. Time & Date
No recent earthquake activity has been reported nearby.
Minimum magnitude displayed is 2.5.

Coastal Water Temperatures

Place Temperature
No Stations Reporting

Nearby Weather Stations

Station Location Temp. Heat Index Dew Point Humidity Wind Precip. Elev Updated Type
ITD Telegraph Hill ID , Atomic City, ID 72 °F 74 °F 21 °F 14% SSW  at  1 mph 0.00 in / hr 5424 ft 12:45 PM MDT MADIS
ITD Kettle Butte HWY-20 ID , Idaho Falls, ID 75 °F 76 °F 29 °F 18% South  at  9 mph 0.00 in / hr 5111 ft 12:45 PM MDT MADIS

Show More Stations Show Fewer Stations